Air Quality Table

TIMESTAMP NO2 SO2 O3 PM10 PM2.5 CO TEMP HUM AIRPRES WS WD NO BENZENE
2023-06-08 12:00 16.18 µg/m3 0.77 µg/m3 67.33 µg/m3 19.92 µg/m3 8.37 µg/m3 0.35 mg/m3 24.33 °C 56.01 % 1,014.65 mbar 3.56 m/s 281.21 Deg 7.33 µg/m3 0.52 µg/m3
2023-06-08 11:00 19.42 µg/m3 0.83 µg/m3 66.31 µg/m3 19.49 µg/m3 9.07 µg/m3 0.37 mg/m3 24.11 °C 55.82 % 1,014.73 mbar 2.61 m/s 303.58 Deg 7.08 µg/m3 0.94 µg/m3
2023-06-08 10:00 26.55 µg/m3 1.01 µg/m3 58.9 µg/m3 22.16 µg/m3 11.03 µg/m3 0.36 mg/m3 23.42 °C 63.97 % 1,014.61 mbar 2.04 m/s 315.43 Deg 10.42 µg/m3 0.79 µg/m3
2023-06-08 09:00 22.89 µg/m3 1.03 µg/m3 55.09 µg/m3 18.3 µg/m3 9.84 µg/m3 0.38 mg/m3 22.86 °C 69.48 % 1,014.60 mbar 2.02 m/s 277.28 Deg 8.42 µg/m3 0.7 µg/m3
2023-06-08 08:00 32.02 µg/m3 0.9 µg/m3 40.84 µg/m3 28.06 µg/m3 13.1 µg/m3 0.42 mg/m3 21.41 °C 82.87 % 1,014.42 mbar 1.33 m/s 260.69 Deg 13.42 µg/m3 1.75 µg/m3
2023-06-08 07:00 48.75 µg/m3 1.57 µg/m3 14.05 µg/m3 44.72 µg/m3 22.51 µg/m3 0.45 mg/m3 20.31 °C 91.6 % 1,014.18 mbar 1.4 m/s 255.33 Deg 37.08 µg/m3 2.73 µg/m3
2023-06-08 06:00 47.74 µg/m3 1.88 µg/m3 3.35 µg/m3 46.38 µg/m3 18.22 µg/m3 0.45 mg/m3 18.74 °C 85.48 % 1,014.06 mbar 1.13 m/s 237.4 Deg 83.85 µg/m3 3.31 µg/m3
2023-06-08 05:00 43.53 µg/m3 1.19 µg/m3 4.75 µg/m3 24.2 µg/m3 12.72 µg/m3 0.34 mg/m3 18.16 °C 85.4 % 1,013.82 mbar 0.91 m/s 236.38 Deg 58.72 µg/m3 0.92 µg/m3
2023-06-08 04:00 31.59 µg/m3 0.55 µg/m3 18.82 µg/m3 16.37 µg/m3 9.8 µg/m3 0.25 mg/m3 18.09 °C 86.95 % 1,013.94 mbar 1.03 m/s 243.08 Deg 17.1 µg/m3 0.47 µg/m3
2023-06-08 03:00 35.51 µg/m3 0.38 µg/m3 23.6 µg/m3 14.6 µg/m3 9.67 µg/m3 0.23 mg/m3 18.17 °C 91.16 % 1,014.25 mbar 0.98 m/s 236.58 Deg 16 µg/m3 0.52 µg/m3
2023-06-08 02:00 17.44 µg/m3 0.61 µg/m3 21.89 µg/m3 17.39 µg/m3 11.17 µg/m3 0.3 mg/m3 18.5 °C 91.55 % 1,014.65 mbar 0.51 m/s 245.78 Deg 3.51 µg/m3 1.57 µg/m3
2023-06-08 01:00 19.28 µg/m3 0.37 µg/m3 22.57 µg/m3 19.08 µg/m3 12.82 µg/m3 0.31 mg/m3 19.02 °C 91.85 % 1,015.05 mbar 0.73 m/s 247.16 Deg 4.63 µg/m3 1.34 µg/m3
2023-06-08 00:00 22.8 µg/m3 0.47 µg/m3 30.75 µg/m3 18.85 µg/m3 13.03 µg/m3 0.33 mg/m3 20.08 °C 90.89 % 1,015.32 mbar 0.4 m/s 241.98 Deg 4.65 µg/m3 1 µg/m3
2023-06-07 23:00 24.63 µg/m3 0.43 µg/m3 40.4 µg/m3 19.41 µg/m3 13.23 µg/m3 0.34 mg/m3 20.44 °C 91.41 % 1,015.44 mbar 0.66 m/s 273.85 Deg 5.29 µg/m3 1.34 µg/m3
2023-06-07 22:00 17.62 µg/m3 0.36 µg/m3 59.74 µg/m3 18.6 µg/m3 10.78 µg/m3 0.32 mg/m3 20.95 °C 89.73 % 1,015.30 mbar 0.55 m/s 130.7 Deg 3 µg/m3 1.13 µg/m3
2023-06-07 21:00 12.73 µg/m3 0.61 µg/m3 78.04 µg/m3 19.58 µg/m3 11.25 µg/m3 0.32 mg/m3 21.28 °C 87.07 % 1,015.09 mbar 0.84 m/s 134.94 Deg 1.58 µg/m3 0.73 µg/m3
2023-06-07 20:00 17.14 µg/m3 0.52 µg/m3 77.61 µg/m3 20.96 µg/m3 12.14 µg/m3 0.33 mg/m3 21.55 °C 84.17 % 1,014.65 mbar 1.48 m/s 125.15 Deg 4.64 µg/m3 0.66 µg/m3
2023-06-07 19:00 16.56 µg/m3 0.51 µg/m3 81.99 µg/m3 20.57 µg/m3 11.8 µg/m3 0.33 mg/m3 22.07 °C 79.6 % 1,014.31 mbar 2.78 m/s 56.1 Deg 2.86 µg/m3 0.6 µg/m3
2023-06-07 18:00 15.9 µg/m3 0.77 µg/m3 83.48 µg/m3 20.48 µg/m3 11.96 µg/m3 0.35 mg/m3 22.49 °C 74.06 % 1,014.06 mbar 3.12 m/s 61.53 Deg 3.18 µg/m3 0.94 µg/m3
2023-06-07 17:00 22.1 µg/m3 0.68 µg/m3 79.14 µg/m3 23.53 µg/m3 14.2 µg/m3 0.36 mg/m3 23.06 °C 74.27 % 1,014.18 mbar 2.71 m/s 65.53 Deg 4.39 µg/m3 1.18 µg/m3
2023-06-07 16:00 22.05 µg/m3 0.68 µg/m3 78.6 µg/m3 22.98 µg/m3 13.48 µg/m3 0.36 mg/m3 23.48 °C 68.31 % 1,014.40 mbar 2.53 m/s 139.49 Deg 5.37 µg/m3 1.15 µg/m3
2023-06-07 15:00 15.47 µg/m3 0.68 µg/m3 85.44 µg/m3 20.71 µg/m3 13.17 µg/m3 0.34 mg/m3 23.07 °C 69.54 % 1,014.67 mbar 3.15 m/s 74.78 Deg 4.08 µg/m3 0.89 µg/m3
2023-06-07 14:00 16.31 µg/m3 0.8 µg/m3 81.76 µg/m3 20.07 µg/m3 12.85 µg/m3 0.33 mg/m3 22.82 °C 70.66 % 1,014.90 mbar 3.58 m/s 69.13 Deg 4.51 µg/m3 0.81 µg/m3
2023-06-07 13:00 14.27 µg/m3 0.74 µg/m3 80.54 µg/m3 22.59 µg/m3 13.35 µg/m3 0.33 mg/m3 22.78 °C 71.45 % 1,015.07 mbar 3.17 m/s 71.93 Deg 4.31 µg/m3 0.76 µg/m3
2023-06-07 12:00 15.59 µg/m3 0.7 µg/m3 76.56 µg/m3 22.19 µg/m3 13.32 µg/m3 0.32 mg/m3 22.44 °C 74.92 % 1,015.16 mbar 2.84 m/s 63.64 Deg 3.75 µg/m3 0.94 µg/m3
2023-06-07 11:00 15.75 µg/m3 0.86 µg/m3 76.47 µg/m3 22.92 µg/m3 12.34 µg/m3 0.31 mg/m3 22.16 °C 72.92 % 1,015.14 mbar 3.07 m/s 63.56 Deg 4.71 µg/m3 0.87 µg/m3
2023-06-07 10:00 16.91 µg/m3 0.83 µg/m3 69.07 µg/m3 19.78 µg/m3 11.25 µg/m3 0.31 mg/m3 21.88 °C 76.87 % 1,014.85 mbar 2.73 m/s 63.4 Deg 5.16 µg/m3 0.7 µg/m3
2023-06-07 09:00 17.64 µg/m3 0.81 µg/m3 66.6 µg/m3 19.26 µg/m3 10.73 µg/m3 0.3 mg/m3 21.62 °C 77.01 % 1,014.70 mbar 2.83 m/s 57.87 Deg 5.45 µg/m3 2.07 µg/m3
2023-06-07 08:00 16.29 µg/m3 0.4 µg/m3 70.74 µg/m3 20.92 µg/m3 10.9 µg/m3 0.29 mg/m3 21.47 °C 76.96 % 1,014.90 mbar 2.03 m/s 50.73 Deg 4.53 µg/m3 0.52 µg/m3
2023-06-07 07:00 19.23 µg/m3 0.47 µg/m3 61.96 µg/m3 19.83 µg/m3 10.72 µg/m3 0.29 mg/m3 20.93 °C 82.22 % 1,014.75 mbar 1.67 m/s 32.09 Deg 4.34 µg/m3 1.21 µg/m3
2023-06-07 06:00 37.32 µg/m3 0.36 µg/m3 35.21 µg/m3 23.93 µg/m3 12.41 µg/m3 0.3 mg/m3 20.09 °C 88.64 % 1,014.42 mbar 0.98 m/s 91.09 Deg 13.27 µg/m3 0.89 µg/m3
2023-06-07 05:00 19.64 µg/m3 0.34 µg/m3 62.1 µg/m3 15.23 µg/m3 9.79 µg/m3 0.24 mg/m3 19.94 °C 91.9 % 1,014.18 mbar 1.44 m/s 24.61 Deg 1.75 µg/m3 1.73 µg/m3
2023-06-07 04:00 17.36 µg/m3 0.05 µg/m3 71.05 µg/m3 12.91 µg/m3 8.19 µg/m3 0.23 mg/m3 19.92 °C 92.12 % 1,013.91 mbar 1.87 m/s 62.88 Deg 0.65 µg/m3 0.31 µg/m3
2023-06-07 03:00 22.51 µg/m3 0.39 µg/m3 79.18 µg/m3 12.29 µg/m3 7.51 µg/m3 0.22 mg/m3 19.93 °C 89.5 % 1,014.02 mbar 2.58 m/s 61.33 Deg 0.24 µg/m3 0.21 µg/m3
2023-06-07 02:00 5.72 µg/m3 0.11 µg/m3 75.1 µg/m3 13.41 µg/m3 8.55 µg/m3 0.27 mg/m3 20.2 °C 91.27 % 1,014.42 mbar 3.15 m/s 57.02 Deg 0.39 µg/m3 0.37 µg/m3
2023-06-07 01:00 7.51 µg/m3 0.52 µg/m3 75.14 µg/m3 15.87 µg/m3 9.61 µg/m3 0.29 mg/m3 20.33 °C 93.37 % 1,014.74 mbar 1.72 m/s 67.82 Deg 0.59 µg/m3 0.44 µg/m3
2023-06-07 00:00 9.11 µg/m3 0.21 µg/m3 69.78 µg/m3 14.65 µg/m3 9.54 µg/m3 0.29 mg/m3 20.28 °C 96.1 % 1,014.87 mbar 1.89 m/s 68.61 Deg 0.84 µg/m3 0.68 µg/m3
2023-06-06 23:00 9.2 µg/m3 0.24 µg/m3 66.33 µg/m3 16.4 µg/m3 9.85 µg/m3 0.3 mg/m3 20.25 °C 97.55 % 1,014.95 mbar 1.79 m/s 76.74 Deg 0.87 µg/m3 0.58 µg/m3
2023-06-06 22:00 9.11 µg/m3 0.16 µg/m3 65.16 µg/m3 16.86 µg/m3 10.16 µg/m3 0.31 mg/m3 20.34 °C 97.91 % 1,014.69 mbar 2.87 m/s 68.3 Deg 0.96 µg/m3 0.47 µg/m3
2023-06-06 21:00 14 µg/m3 0.45 µg/m3 70.03 µg/m3 19.2 µg/m3 10.5 µg/m3 0.32 mg/m3 20.49 °C 94.46 % 1,014.46 mbar 3.14 m/s 58.68 Deg 1.95 µg/m3 0.79 µg/m3
2023-06-06 20:00 21.89 µg/m3 0.49 µg/m3 75.5 µg/m3 21.17 µg/m3 9.52 µg/m3 0.33 mg/m3 20.42 °C 83.92 % 1,013.83 mbar 2.22 m/s 259.96 Deg 3.94 µg/m3 1.4 µg/m3
2023-06-06 19:00 25.55 µg/m3 0.65 µg/m3 74.25 µg/m3 26.12 µg/m3 10.22 µg/m3 0.35 mg/m3 20.67 °C 79.9 % 1,013.53 mbar 2.16 m/s 74.18 Deg 8.61 µg/m3 0.94 µg/m3
2023-06-06 18:00 25.46 µg/m3 0.51 µg/m3 76.92 µg/m3 29.76 µg/m3 11.8 µg/m3 0.34 mg/m3 21.19 °C 73.81 % 1,013.27 mbar 1.82 m/s 272.28 Deg 4.68 µg/m3 0.73 µg/m3
2023-06-06 17:00 24.25 µg/m3 0.37 µg/m3 72.65 µg/m3 30.74 µg/m3 11.51 µg/m3 0.32 mg/m3 21.49 °C 72.2 % 1,013.22 mbar 2.66 m/s 52.61 Deg 6.33 µg/m3 0.79 µg/m3
2023-06-06 16:00 27.07 µg/m3 0.63 µg/m3 71.34 µg/m3 32.02 µg/m3 12.58 µg/m3 0.32 mg/m3 21.56 °C 75 % 1,013.34 mbar 2.69 m/s 245.41 Deg 8.21 µg/m3 0.76 µg/m3
2023-06-06 15:00 25.34 µg/m3 0.58 µg/m3 74.25 µg/m3 39.95 µg/m3 14.62 µg/m3 0.32 mg/m3 21.48 °C 78.83 % 1,013.48 mbar 2.94 m/s 115.01 Deg 6.54 µg/m3 0.7 µg/m3
2023-06-06 14:00 29.22 µg/m3 0.59 µg/m3 74.92 µg/m3 41.9 µg/m3 15.7 µg/m3 0.31 mg/m3 21.24 °C 81.7 % 1,013.87 mbar 3.08 m/s 57.26 Deg 8.94 µg/m3 0.79 µg/m3
2023-06-06 13:00 28.2 µg/m3 0.45 µg/m3 75.48 µg/m3 45.75 µg/m3 17.77 µg/m3 0.31 mg/m3 21.08 °C 84.68 % 1,014.09 mbar 3.13 m/s 115.43 Deg 6.74 µg/m3 0.52 µg/m3
2023-06-06 12:00 26.72 µg/m3 0.42 µg/m3 77.58 µg/m3 48.06 µg/m3 17.96 µg/m3 0.31 mg/m3 20.84 °C 86.7 % 1,014.16 mbar 3.8 m/s 199.14 Deg 6.88 µg/m3 0.91 µg/m3
2023-06-06 11:00 28.76 µg/m3 0.64 µg/m3 69.53 µg/m3 43 µg/m3 17.42 µg/m3 0.32 mg/m3 21.16 °C 84.61 % 1,014.24 mbar 2.78 m/s 185.1 Deg 7.08 µg/m3 1.21 µg/m3
2023-06-06 10:00 26.05 µg/m3 0.59 µg/m3 70.25 µg/m3 40.56 µg/m3 17.32 µg/m3 0.31 mg/m3 19.89 °C 94.58 % 1,014.12 mbar 3 m/s 72.29 Deg 8.01 µg/m3 1.05 µg/m3
2023-06-06 09:00 43.9 µg/m3 0.74 µg/m3 51.88 µg/m3 31.53 µg/m3 16.51 µg/m3 0.32 mg/m3 19.37 °C 96.46 % 1,014.53 mbar 1.75 m/s 62.95 Deg 13.4 µg/m3 1.31 µg/m3
2023-06-06 08:00 49.22 µg/m3 0.41 µg/m3 44.44 µg/m3 31.58 µg/m3 14.6 µg/m3 0.29 mg/m3 20.05 °C 85.75 % 1,013.41 mbar 1.67 m/s 111.91 Deg 14.57 µg/m3 0.98 µg/m3
2023-06-06 07:00 30.8 µg/m3 0.31 µg/m3 63.6 µg/m3 32.82 µg/m3 14.48 µg/m3 0.27 mg/m3 20.12 °C 80.83 % 1,011.69 mbar 3.01 m/s 130.66 Deg 6.64 µg/m3 1.07 µg/m3
2023-06-06 06:00 29.63 µg/m3 0.29 µg/m3 65.77 µg/m3 27.98 µg/m3 14.12 µg/m3 0.25 mg/m3 20.43 °C 79.96 % 1,011.27 mbar 2.72 m/s 122.15 Deg 6.25 µg/m3 0.76 µg/m3
2023-06-06 05:00 13.08 µg/m3 0.24 µg/m3 81.64 µg/m3 22.07 µg/m3 12.84 µg/m3 0.23 mg/m3 20.5 °C 79.08 % 1,011.57 mbar 2.91 m/s 120.51 Deg 2.51 µg/m3 0.42 µg/m3
2023-06-06 04:00 13.14 µg/m3 0.03 µg/m3 80.66 µg/m3 25.32 µg/m3 14.27 µg/m3 0.22 mg/m3 20.52 °C 81.49 % 1,012.13 mbar 2.12 m/s 164.51 Deg 0.58 µg/m3 0.34 µg/m3
2023-06-06 03:00 19.32 µg/m3 0.3 µg/m3 82.02 µg/m3 31.23 µg/m3 16.72 µg/m3 0.22 mg/m3 20.4 °C 87.6 % 1,012.06 mbar 2.3 m/s 45.33 Deg 0.28 µg/m3 0.39 µg/m3
2023-06-06 02:00 4.24 µg/m3 0.44 µg/m3 77.81 µg/m3 39.88 µg/m3 18.98 µg/m3 0.27 mg/m3 20.68 °C 85.45 % 1,012.68 mbar 1.67 m/s 137.31 Deg 0.43 µg/m3 0.37 µg/m3
2023-06-06 01:00 4.7 µg/m3 0.02 µg/m3 81.93 µg/m3 38.04 µg/m3 19 µg/m3 0.27 mg/m3 21.06 °C 80.19 % 1,011.95 mbar 2.25 m/s 258.55 Deg 0.25 µg/m3 0.44 µg/m3
2023-06-06 00:00 4.93 µg/m3 0.07 µg/m3 81.63 µg/m3 39.36 µg/m3 19.07 µg/m3 0.27 mg/m3 21.07 °C 82.32 % 1,010.98 mbar 2.89 m/s 38.59 Deg 0.68 µg/m3 0.31 µg/m3
2023-06-05 23:00 5.21 µg/m3 0.39 µg/m3 84 µg/m3 28.33 µg/m3 16.03 µg/m3 0.28 mg/m3 21.22 °C 81.64 % 1,010.41 mbar 3.44 m/s 146.44 Deg 0.42 µg/m3 0.34 µg/m3
2023-06-05 22:00 4.69 µg/m3 0.55 µg/m3 77.01 µg/m3 27.69 µg/m3 14.85 µg/m3 0.28 mg/m3 20.75 °C 88.45 % 1,010.51 mbar 4.68 m/s 73.7 Deg 0.56 µg/m3 0.42 µg/m3
2023-06-05 21:00 6.8 µg/m3 0.28 µg/m3 75.16 µg/m3 32.01 µg/m3 16.52 µg/m3 0.29 mg/m3 20.56 °C 93.34 % 1,012.15 mbar 5.2 m/s 131.81 Deg 0.7 µg/m3 0.42 µg/m3
2023-06-05 20:00 8.8 µg/m3 0.18 µg/m3 75.6 µg/m3 26.78 µg/m3 14.94 µg/m3 0.3 mg/m3 21.03 °C 90.73 % 1,011.74 mbar 4.13 m/s 37.45 Deg 1.87 µg/m3 0.56 µg/m3
2023-06-05 19:00 11.73 µg/m3 0.26 µg/m3 74.88 µg/m3 31.35 µg/m3 16.15 µg/m3 0.3 mg/m3 21.09 °C 89.91 % 1,010.98 mbar 4.58 m/s 39.38 Deg 2.86 µg/m3 0.47 µg/m3
2023-06-05 18:00 13.94 µg/m3 0.23 µg/m3 76.16 µg/m3 33.85 µg/m3 17.83 µg/m3 0.3 mg/m3 21.08 °C 90.57 % 1,011.48 mbar 5 m/s 51.62 Deg 2.58 µg/m3 0.42 µg/m3
2023-06-05 17:00 14.03 µg/m3 0.19 µg/m3 72.03 µg/m3 36.81 µg/m3 17.65 µg/m3 0.3 mg/m3 21.4 °C 89.39 % 1,011.78 mbar 4.88 m/s 133.33 Deg 3.78 µg/m3 0.44 µg/m3
2023-06-05 16:00 14.41 µg/m3 0.31 µg/m3 71.3 µg/m3 46.16 µg/m3 18.28 µg/m3 0.3 mg/m3 21.79 °C 87.45 % 1,011.84 mbar 4.77 m/s 41.1 Deg 4.96 µg/m3 0.61 µg/m3
2023-06-05 15:00 13.31 µg/m3 0.44 µg/m3 67.31 µg/m3 47.78 µg/m3 17.81 µg/m3 0.29 mg/m3 22.31 °C 86.45 % 1,011.59 mbar 4.18 m/s 131.89 Deg 3.88 µg/m3 0.58 µg/m3
2023-06-05 14:00 12.17 µg/m3 0.39 µg/m3 63.57 µg/m3 44.16 µg/m3 17.54 µg/m3 0.28 mg/m3 22.03 °C 87.84 % 1,011.97 mbar 4.42 m/s 182.25 Deg 4.57 µg/m3 0.6 µg/m3
2023-06-05 13:00 13.54 µg/m3 0.32 µg/m3 61.87 µg/m3 39.61 µg/m3 16.1 µg/m3 0.26 mg/m3 21.55 °C 89.77 % 1,012.47 mbar 4.24 m/s 212.53 Deg 4.39 µg/m3 0.49 µg/m3
2023-06-05 12:00 15.69 µg/m3 0.19 µg/m3 57.18 µg/m3 34.65 µg/m3 14.21 µg/m3 0.24 mg/m3 21.37 °C 91.62 % 1,012.80 mbar 4.06 m/s 44.34 Deg 5.48 µg/m3 0.76 µg/m3
2023-06-05 11:00 18.8 µg/m3 0.17 µg/m3 54.67 µg/m3 35.78 µg/m3 15.02 µg/m3 0.24 mg/m3 20.91 °C 93.99 % 1,012.64 mbar 3.68 m/s 41.58 Deg 7.1 µg/m3 0.68 µg/m3
2023-06-05 10:00 19.92 µg/m3 0.3 µg/m3 56.67 µg/m3 41.83 µg/m3 17.75 µg/m3 0.28 mg/m3 20.74 °C 94.35 % 1,013.26 mbar 3.52 m/s 51.89 Deg 4.91 µg/m3 0.56 µg/m3
2023-06-05 09:00 25.63 µg/m3 0.33 µg/m3 47.25 µg/m3 32.8 µg/m3 18 µg/m3 0.29 mg/m3 20.66 °C 94.39 % 1,012.15 mbar 2.94 m/s 132.19 Deg 7.95 µg/m3 0.58 µg/m3
2023-06-05 08:00 24.27 µg/m3 0.56 µg/m3 41.27 µg/m3 30.55 µg/m3 17.52 µg/m3 0.29 mg/m3 20.55 °C 93.89 % 1,011.79 mbar 3.15 m/s 97.6 Deg 8.56 µg/m3 0.77 µg/m3
2023-06-05 07:00 35.92 µg/m3 0.39 µg/m3 31.98 µg/m3 32.24 µg/m3 17.66 µg/m3 0.28 mg/m3 20.65 °C 92.73 % 1,012.79 mbar 3.01 m/s 205.97 Deg 14.74 µg/m3 1.19 µg/m3
2023-06-05 06:00 30.46 µg/m3 0.49 µg/m3 35.21 µg/m3 27.79 µg/m3 15.43 µg/m3 0.27 mg/m3 20.7 °C 91.31 % 1,012.94 mbar 2.21 m/s 189.63 Deg 12.04 µg/m3 0.94 µg/m3
2023-06-05 05:00 14.37 µg/m3 0.29 µg/m3 49.26 µg/m3 22.42 µg/m3 13.17 µg/m3 0.23 mg/m3 20.54 °C 92.36 % 1,012.35 mbar 2.16 m/s 274.93 Deg 1.89 µg/m3 0.58 µg/m3
2023-06-05 04:00 13.95 µg/m3 0.07 µg/m3 54.93 µg/m3 20.68 µg/m3 12.33 µg/m3 0.22 mg/m3 20.35 °C 93.04 % 1,012.33 mbar 1.78 m/s 270.44 Deg 0.59 µg/m3 0.23 µg/m3
2023-06-05 03:00 24.47 µg/m3 0.15 µg/m3 58.04 µg/m3 21.51 µg/m3 12.29 µg/m3 0.22 mg/m3 20.44 °C 92.92 % 1,012.95 mbar 1.75 m/s 68.88 Deg 0.63 µg/m3 0.28 µg/m3
2023-06-05 02:00 6.68 µg/m3 0.08 µg/m3 54.26 µg/m3 20.07 µg/m3 11.3 µg/m3 0.26 mg/m3 20.57 °C 90.89 % 1,013.57 mbar 1.58 m/s 123.26 Deg 0.89 µg/m3 0.31 µg/m3
2023-06-05 01:00 7.67 µg/m3 0.39 µg/m3 49.3 µg/m3 21.04 µg/m3 11.79 µg/m3 0.27 mg/m3 20.59 °C 90.38 % 1,013.65 mbar 1.57 m/s 26.78 Deg 0.59 µg/m3 0.23 µg/m3
2023-06-05 00:00 15.84 µg/m3 0.2 µg/m3 44.12 µg/m3 24.18 µg/m3 14.89 µg/m3 0.28 mg/m3 20.65 °C 89.03 % 1,013.63 mbar 2.24 m/s 208.6 Deg 0.84 µg/m3 0.28 µg/m3
2023-06-04 23:00 8.47 µg/m3 0.06 µg/m3 58.73 µg/m3 21.6 µg/m3 12.59 µg/m3 0.29 mg/m3 20.71 °C 89.76 % 1,013.55 mbar 2.58 m/s 267.03 Deg 0.51 µg/m3 0.28 µg/m3
2023-06-04 22:00 6.64 µg/m3 0.52 µg/m3 64.58 µg/m3 21.73 µg/m3 12.19 µg/m3 0.31 mg/m3 20.8 °C 89.05 % 1,013.38 mbar 2.32 m/s 118.1 Deg 0.66 µg/m3 0.63 µg/m3
2023-06-04 21:00 9.74 µg/m3 0.27 µg/m3 57.7 µg/m3 22.67 µg/m3 11.96 µg/m3 0.3 mg/m3 20.93 °C 88.89 % 1,013.56 mbar 2.63 m/s 112.93 Deg 1.23 µg/m3 0.44 µg/m3
2023-06-04 20:00 9.39 µg/m3 0.41 µg/m3 58.28 µg/m3 21.67 µg/m3 11.15 µg/m3 0.3 mg/m3 21.25 °C 86.82 % 1,013.64 mbar 2.17 m/s 104.98 Deg 1.6 µg/m3 0.73 µg/m3
2023-06-04 19:00 12.18 µg/m3 0.43 µg/m3 56.71 µg/m3 29.59 µg/m3 10.97 µg/m3 0.31 mg/m3 21.73 °C 84.61 % 1,014.06 mbar 2.03 m/s 194.93 Deg 1.69 µg/m3 0.66 µg/m3
2023-06-04 18:00 14.02 µg/m3 0.41 µg/m3 55.14 µg/m3 24.2 µg/m3 10.14 µg/m3 0.3 mg/m3 21.78 °C 83.8 % 1,012.92 mbar 3.35 m/s 218.13 Deg 2.22 µg/m3 0.61 µg/m3
2023-06-04 17:00 11.01 µg/m3 0.44 µg/m3 54.93 µg/m3 20.64 µg/m3 9.22 µg/m3 0.3 mg/m3 22.23 °C 81.2 % 1,013.86 mbar 3.02 m/s 236.79 Deg 1.78 µg/m3 0.58 µg/m3
2023-06-04 16:00 10.8 µg/m3 0.34 µg/m3 53.15 µg/m3 18.76 µg/m3 9.01 µg/m3 0.3 mg/m3 22.63 °C 79.7 % 1,014.85 mbar 3.24 m/s 121.65 Deg 2.07 µg/m3 0.55 µg/m3
2023-06-04 15:00 9.85 µg/m3 0.49 µg/m3 56.1 µg/m3 17.67 µg/m3 8.85 µg/m3 0.31 mg/m3 23.03 °C 78.34 % 1,014.99 mbar 3.4 m/s 193.68 Deg 4.83 µg/m3 0.7 µg/m3
2023-06-04 14:00 7.39 µg/m3 0.56 µg/m3 62.68 µg/m3 16.7 µg/m3 8.85 µg/m3 0.32 mg/m3 22.96 °C 79.19 % 1,015.12 mbar 4.08 m/s 76.87 Deg 2.29 µg/m3 1.18 µg/m3
2023-06-04 13:00 6.69 µg/m3 0.6 µg/m3 62.61 µg/m3 16.51 µg/m3 8.73 µg/m3 0.34 mg/m3 23 °C 78.12 % 1,014.98 mbar 3.84 m/s 66.39 Deg 1.7 µg/m3 0.65 µg/m3
2023-06-04 12:00 8.06 µg/m3 0.3 µg/m3 56.9 µg/m3 16.3 µg/m3 8.22 µg/m3 0.37 mg/m3 22.39 °C 81.65 % 1,015.19 mbar 4.58 m/s 71.98 Deg 2.96 µg/m3 0.89 µg/m3
2023-06-04 11:00 14.97 µg/m3 0.61 µg/m3 54.69 µg/m3 20.99 µg/m3 9.66 µg/m3 0.39 mg/m3 23.89 °C 67.95 % 1,015.46 mbar 2.46 m/s 84.55 Deg 5.71 µg/m3 1.15 µg/m3
2023-06-04 10:00 18.05 µg/m3 1.07 µg/m3 48.06 µg/m3 20.79 µg/m3 9.02 µg/m3 0.42 mg/m3 24.75 °C 59.15 % 1,015.56 mbar 1.44 m/s 199.23 Deg 7.62 µg/m3 2.6 µg/m3
2023-06-04 09:00 17.59 µg/m3 0.72 µg/m3 50.83 µg/m3 19.13 µg/m3 9.58 µg/m3 0.4 mg/m3 23.6 °C 67.86 % 1,015.58 mbar 1.51 m/s 149.01 Deg 6.46 µg/m3 1.36 µg/m3
2023-06-04 08:00 14.82 µg/m3 0.84 µg/m3 50.26 µg/m3 19.56 µg/m3 10.66 µg/m3 0.39 mg/m3 22.51 °C 75.51 % 1,015.09 mbar 1.18 m/s 149.13 Deg 3.84 µg/m3 6.25 µg/m3
2023-06-04 07:00 17.57 µg/m3 0.52 µg/m3 45.26 µg/m3 24.47 µg/m3 14.27 µg/m3 0.33 mg/m3 21.02 °C 86.13 % 1,014.54 mbar 1.01 m/s 210.58 Deg 4.01 µg/m3 1.42 µg/m3
2023-06-04 06:00 23.27 µg/m3 0.39 µg/m3 28.61 µg/m3 26.15 µg/m3 16.11 µg/m3 0.32 mg/m3 19.38 °C 92.76 % 1,014.31 mbar 0.65 m/s 193.68 Deg 4.34 µg/m3 1.03 µg/m3
2023-06-04 05:00 23.4 µg/m3 0.99 µg/m3 25.78 µg/m3 26.11 µg/m3 17.74 µg/m3 0.34 mg/m3 18.72 °C 93.85 % 1,014.31 mbar 0.7 m/s 111.12 Deg 2.36 µg/m3 2.02 µg/m3
2023-06-04 04:00 32.43 µg/m3 0.76 µg/m3 12.72 µg/m3 32.63 µg/m3 23.6 µg/m3 0.37 mg/m3 18.66 °C 92.99 % 1,014.35 mbar 0.52 m/s 118.99 Deg 6.99 µg/m3 1.52 µg/m3
2023-06-04 03:00 46.01 µg/m3 0.62 µg/m3 12.29 µg/m3 34.24 µg/m3 24.38 µg/m3 0.36 mg/m3 18.77 °C 92.46 % 1,014.40 mbar 0.24 m/s 259.82 Deg 6.1 µg/m3 1.36 µg/m3
2023-06-04 02:00 30.79 µg/m3 0.86 µg/m3 16.86 µg/m3 49.51 µg/m3 36.87 µg/m3 0.43 mg/m3 18.73 °C 91.74 % 1,014.61 mbar 0.42 m/s 247.25 Deg 14.19 µg/m3 1.33 µg/m3
2023-06-04 01:00 31.81 µg/m3 0.44 µg/m3 15.16 µg/m3 24.44 µg/m3 15.03 µg/m3 0.44 mg/m3 19.36 °C 90.12 % 1,015.12 mbar 0.96 m/s 182.29 Deg 10.48 µg/m3 1.26 µg/m3
2023-06-04 00:00 34.91 µg/m3 0.71 µg/m3 14.06 µg/m3 22.14 µg/m3 12.09 µg/m3 0.46 mg/m3 19.3 °C 91.01 % 1,015.60 mbar 0.67 m/s 233.37 Deg 15.14 µg/m3 1.68 µg/m3
2023-06-03 23:00 34.94 µg/m3 1.02 µg/m3 12.4 µg/m3 22.17 µg/m3 11.56 µg/m3 0.46 mg/m3 20.06 °C 88.3 % 1,015.68 mbar 0.51 m/s 236.59 Deg 15.88 µg/m3 1.92 µg/m3
2023-06-03 22:00 37.56 µg/m3 0.7 µg/m3 18.13 µg/m3 19.45 µg/m3 10.64 µg/m3 0.45 mg/m3 20.34 °C 87.05 % 1,015.44 mbar 0.48 m/s 176.43 Deg 16.39 µg/m3 2.62 µg/m3
2023-06-03 21:00 33.63 µg/m3 0.67 µg/m3 26.56 µg/m3 17.62 µg/m3 9.27 µg/m3 0.41 mg/m3 20.63 °C 85.01 % 1,015.24 mbar 0.67 m/s 199.38 Deg 13.52 µg/m3 1.52 µg/m3
2023-06-03 20:00 14.33 µg/m3 0.43 µg/m3 50.55 µg/m3 16.25 µg/m3 8.71 µg/m3 0.34 mg/m3 21.08 °C 83.71 % 1,014.94 mbar 1.83 m/s 43.98 Deg 4.29 µg/m3 3.43 µg/m3
2023-06-03 19:00 7.83 µg/m3 0.26 µg/m3 54.86 µg/m3 14.12 µg/m3 8.02 µg/m3 0.32 mg/m3 21.46 °C 82.43 % 1,014.56 mbar 2.17 m/s 55.62 Deg 2.69 µg/m3 0.47 µg/m3
2023-06-03 18:00 10.01 µg/m3 0.38 µg/m3 52.72 µg/m3 16.47 µg/m3 8.39 µg/m3 0.33 mg/m3 21.82 °C 81.04 % 1,014.26 mbar 2.46 m/s 54.79 Deg 3.92 µg/m3 0.79 µg/m3
2023-06-03 17:00 9.99 µg/m3 0.5 µg/m3 54.31 µg/m3 17.57 µg/m3 9.12 µg/m3 0.32 mg/m3 22.18 °C 77.89 % 1,014.29 mbar 3.36 m/s 135.42 Deg 3.66 µg/m3 1.5 µg/m3
2023-06-03 16:00 10.12 µg/m3 0.51 µg/m3 53.74 µg/m3 17.64 µg/m3 9.63 µg/m3 0.29 mg/m3 23.22 °C 71.5 % 1,014.67 mbar 3.21 m/s 272.87 Deg 4.99 µg/m3 0.44 µg/m3
2023-06-03 15:00 9.85 µg/m3 0.6 µg/m3 54.57 µg/m3 17.47 µg/m3 9.14 µg/m3 0.3 mg/m3 23 °C 73.27 % 1,015.13 mbar 3.41 m/s 282.2 Deg 4.42 µg/m3 1.13 µg/m3
2023-06-03 14:00 11.96 µg/m3 0.51 µg/m3 53.61 µg/m3 16.09 µg/m3 8.7 µg/m3 0.3 mg/m3 22.52 °C 74.5 % 1,015.45 mbar 1.75 m/s 303.51 Deg 5.04 µg/m3 1.47 µg/m3
2023-06-03 13:00 11.73 µg/m3 0.51 µg/m3 54.84 µg/m3 16.65 µg/m3 8.81 µg/m3 0.29 mg/m3 23.1 °C 70.86 % 1,015.26 mbar 2.96 m/s 290.13 Deg 5.66 µg/m3 0.37 µg/m3
2023-06-03 12:00 11.96 µg/m3 0.73 µg/m3 52.9 µg/m3 27.14 µg/m3 9.85 µg/m3 0.29 mg/m3 22.92 °C 71.82 % 1,015.33 mbar 4 m/s 275.02 Deg 5.91 µg/m3 0.58 µg/m3
2023-06-03 11:00 13.17 µg/m3 0.54 µg/m3 53.92 µg/m3 17.58 µg/m3 8.74 µg/m3 0.3 mg/m3 22.73 °C 73.31 % 1,015.37 mbar 3.75 m/s 281.88 Deg 6.86 µg/m3 1 µg/m3
2023-06-03 10:00 14.07 µg/m3 0.73 µg/m3 53.65 µg/m3 19.12 µg/m3 8.71 µg/m3 0.32 mg/m3 22.35 °C 76.08 % 1,015.04 mbar 3.66 m/s 283.74 Deg 7.34 µg/m3 0.52 µg/m3
2023-06-03 09:00 19.67 µg/m3 0.67 µg/m3 50.96 µg/m3 19.9 µg/m3 9.04 µg/m3 0.35 mg/m3 21.91 °C 78.5 % 1,014.57 mbar 2.49 m/s 278.84 Deg 10.13 µg/m3 0.76 µg/m3
2023-06-03 08:00 19.94 µg/m3 0.82 µg/m3 49.74 µg/m3 18.79 µg/m3 9.23 µg/m3 0.37 mg/m3 21.2 °C 81.7 % 1,014.35 mbar 1.54 m/s 275.08 Deg 8.82 µg/m3 1.68 µg/m3
2023-06-03 07:00 34.7 µg/m3 1.6 µg/m3 18.38 µg/m3 29.69 µg/m3 13.95 µg/m3 0.39 mg/m3 19.69 °C 90.87 % 1,014.06 mbar 0.48 m/s 276.58 Deg 23.96 µg/m3 2.65 µg/m3
2023-06-03 06:00 33.74 µg/m3 1.71 µg/m3 4.64 µg/m3 35.8 µg/m3 16.05 µg/m3 0.4 mg/m3 17.55 °C 97.29 % 1,013.79 mbar 0.67 m/s 245.04 Deg 53.9 µg/m3 2.5 µg/m3
2023-06-03 05:00 29.1 µg/m3 0.78 µg/m3 7.05 µg/m3 19.46 µg/m3 10.47 µg/m3 0.32 mg/m3 17.38 °C 98.04 % 1,013.54 mbar 0.74 m/s 231.13 Deg 42.58 µg/m3 0.77 µg/m3
2023-06-03 04:00 22.47 µg/m3 0.49 µg/m3 13.68 µg/m3 15.43 µg/m3 8.91 µg/m3 0.29 mg/m3 17.55 °C 97.06 % 1,013.18 mbar 0.75 m/s 233.48 Deg 13.44 µg/m3 0.65 µg/m3
2023-06-03 03:00 30.3 µg/m3 0.41 µg/m3 19.09 µg/m3 14.43 µg/m3 8.46 µg/m3 0.25 mg/m3 17.69 °C 96.08 % 1,013.14 mbar 0.64 m/s 244.97 Deg 13.75 µg/m3 0.58 µg/m3
2023-06-03 02:00 20.72 µg/m3 0.42 µg/m3 19.29 µg/m3 15.05 µg/m3 9.13 µg/m3 0.33 mg/m3 17.74 °C 95.23 % 1,013.20 mbar 0.76 m/s 239.68 Deg 13 µg/m3 1.23 µg/m3
2023-06-03 01:00 21.17 µg/m3 0.53 µg/m3 17.82 µg/m3 14.97 µg/m3 9.04 µg/m3 0.37 mg/m3 18.11 °C 94.18 % 1,013.37 mbar 0.83 m/s 236.25 Deg 9.3 µg/m3 1.13 µg/m3
2023-06-03 00:00 23.65 µg/m3 0.7 µg/m3 19.63 µg/m3 16.7 µg/m3 9.55 µg/m3 0.39 mg/m3 18.5 °C 92.73 % 1,013.64 mbar 0.65 m/s 240.19 Deg 11.49 µg/m3 1.34 µg/m3
2023-06-02 23:00 28.38 µg/m3 0.81 µg/m3 25.2 µg/m3 16.81 µg/m3 9.5 µg/m3 0.4 mg/m3 18.88 °C 91.12 % 1,013.94 mbar 0.65 m/s 232.28 Deg 10 µg/m3 2.13 µg/m3
2023-06-02 22:00 31.73 µg/m3 0.88 µg/m3 24.86 µg/m3 16.46 µg/m3 9.26 µg/m3 0.42 mg/m3 19.32 °C 89.04 % 1,014.07 mbar 0.7 m/s 219.46 Deg 10.37 µg/m3 1.47 µg/m3
2023-06-02 21:00 32.2 µg/m3 0.79 µg/m3 31.09 µg/m3 16.85 µg/m3 9.61 µg/m3 0.35 mg/m3 19.83 °C 87.01 % 1,013.58 mbar 0.84 m/s 221.04 Deg 11.85 µg/m3 1.1 µg/m3
2023-06-02 20:00 19.45 µg/m3 0.65 µg/m3 51.96 µg/m3 15.95 µg/m3 8.39 µg/m3 0.3 mg/m3 20.66 °C 83.97 % 1,013.11 mbar 1.27 m/s 287.25 Deg 3.98 µg/m3 1 µg/m3
2023-06-02 19:00 23.95 µg/m3 0.53 µg/m3 51.26 µg/m3 18.05 µg/m3 8.77 µg/m3 0.28 mg/m3 21.34 °C 81.01 % 1,012.72 mbar 2.14 m/s 293.2 Deg 9.09 µg/m3 1.08 µg/m3
2023-06-02 18:00 16.48 µg/m3 0.35 µg/m3 55.22 µg/m3 15.71 µg/m3 8.49 µg/m3 0.25 mg/m3 22.17 °C 76.42 % 1,012.55 mbar 3.52 m/s 280.28 Deg 8.4 µg/m3 0.73 µg/m3
2023-06-02 17:00 14.99 µg/m3 0.51 µg/m3 58.22 µg/m3 17.78 µg/m3 8.87 µg/m3 0.24 mg/m3 22.54 °C 74.11 % 1,012.88 mbar 4.01 m/s 268.17 Deg 6.58 µg/m3 0.34 µg/m3
2023-06-02 16:00 15.96 µg/m3 0.46 µg/m3 60.62 µg/m3 17.9 µg/m3 9.24 µg/m3 0.23 mg/m3 22.6 °C 73.72 % 1,013.02 mbar 4.51 m/s 272.6 Deg 6.83 µg/m3 0.63 µg/m3
2023-06-02 15:00 15.09 µg/m3 0.52 µg/m3 61.24 µg/m3 17.73 µg/m3 8.71 µg/m3 0.22 mg/m3 23.31 °C 68.84 % 1,013.24 mbar 4.73 m/s 268.83 Deg 7.14 µg/m3 0.55 µg/m3
2023-06-02 14:00 15.14 µg/m3 0.48 µg/m3 56.09 µg/m3 20.52 µg/m3 8.69 µg/m3 0.21 mg/m3 23.52 °C 66.59 % 1,013.50 mbar 5.23 m/s 271.55 Deg 7.5 µg/m3 0.49 µg/m3
2023-06-02 13:00 12.98 µg/m3 0.55 µg/m3 68.73 µg/m3 17.53 µg/m3 9.11 µg/m3 0.12 mg/m3 22.25 °C 75.51 % 1,013.57 mbar 3.4 m/s 172.82 Deg 5.85 µg/m3 0.52 µg/m3
2023-06-02 12:00 17.91 µg/m3 0.62 µg/m3 70.21 µg/m3 61.97 µg/m3 22.78 µg/m3 0.07 mg/m3 21.53 °C 81.22 % 1,013.50 mbar 2.44 m/s 60.99 Deg 11.92 µg/m3 0.7 µg/m3
2023-06-02 11:00 20.23 µg/m3 0.45 µg/m3 59.83 µg/m3 159.87 µg/m3 71.12 µg/m3 0.1 mg/m3 21.52 °C 81.59 % 1,013.45 mbar 2.42 m/s 271.49 Deg 8.49 µg/m3 0.89 µg/m3
2023-06-02 10:00 15.94 µg/m3 0.65 µg/m3 57.08 µg/m3 22.44 µg/m3 7.71 µg/m3 0.2 mg/m3 21.18 °C 83.99 % 1,013.46 mbar 2.08 m/s 91.33 Deg 4.85 µg/m3 0.65 µg/m3
2023-06-02 09:00 22.98 µg/m3 0.74 µg/m3 50.71 µg/m3 29.83 µg/m3 11.36 µg/m3 0.64 mg/m3 20.88 °C 85.99 % 1,013.32 mbar 2.36 m/s 68.51 Deg 8.75 µg/m3 1.54 µg/m3
2023-06-02 08:00 0 µg/m3 0.78 µg/m3 43.01 µg/m3 26.03 µg/m3 12.96 µg/m3 2.2 mg/m3 20.65 °C 86.12 % 1,013.12 mbar 1.31 m/s 51.17 Deg 0 µg/m3 1.63 µg/m3
2023-06-02 07:00 0 µg/m3 0 µg/m3 0 µg/m3 502.26 µg/m3 83.11 µg/m3 6.41 mg/m3 19.48 °C 94.01 % 1,012.73 mbar 0.5 m/s 268.24 Deg 0 µg/m3 3.76 µg/m3
2023-06-02 06:00 35.49 µg/m3 2.12 µg/m3 1.88 µg/m3 69.23 µg/m3 26.79 µg/m3 0.34 mg/m3 17.71 °C 98.72 % 1,012.58 mbar 0.69 m/s 239.39 Deg 87.11 µg/m3 4.41 µg/m3
2023-06-02 05:00 30.39 µg/m3 1.23 µg/m3 4.49 µg/m3 31.99 µg/m3 18.79 µg/m3 0.34 mg/m3 17.39 °C 98.47 % 1,012.28 mbar 0.74 m/s 239.41 Deg 68.53 µg/m3 0.82 µg/m3
2023-06-02 04:00 20.76 µg/m3 0.48 µg/m3 15.73 µg/m3 22.99 µg/m3 16.97 µg/m3 0.27 mg/m3 17.37 °C 97.85 % 1,012.23 mbar 1.07 m/s 253.33 Deg 5.69 µg/m3 0.63 µg/m3
2023-06-02 03:00 27.32 µg/m3 0.6 µg/m3 16.64 µg/m3 20.6 µg/m3 14.57 µg/m3 0.25 mg/m3 17.53 °C 97.04 % 1,012.23 mbar 0.87 m/s 228.43 Deg 6.58 µg/m3 0.94 µg/m3
2023-06-02 02:00 16.3 µg/m3 0.62 µg/m3 12.79 µg/m3 19.12 µg/m3 13.92 µg/m3 0.33 mg/m3 17.73 °C 96.66 % 1,012.46 mbar 0.74 m/s 238.87 Deg 7.03 µg/m3 0.58 µg/m3
2023-06-02 01:00 18.63 µg/m3 0.44 µg/m3 13.97 µg/m3 20.58 µg/m3 14.26 µg/m3 0.33 mg/m3 18.13 °C 95.92 % 1,012.75 mbar 0.44 m/s 238.1 Deg 5.69 µg/m3 0.73 µg/m3
2023-06-02 00:00 20.07 µg/m3 0.48 µg/m3 18.25 µg/m3 22.07 µg/m3 15.05 µg/m3 0.35 mg/m3 18.45 °C 94.99 % 1,013.08 mbar 0.58 m/s 239.17 Deg 6.51 µg/m3 0.89 µg/m3
2023-06-01 23:00 21.89 µg/m3 0.48 µg/m3 21.78 µg/m3 24.85 µg/m3 14.68 µg/m3 0.39 mg/m3 18.65 °C 93.67 % 1,013.23 mbar 0.78 m/s 239.04 Deg 7.73 µg/m3 1.1 µg/m3
2023-06-01 22:00 26.28 µg/m3 0.64 µg/m3 38.27 µg/m3 23.37 µg/m3 12.88 µg/m3 0.38 mg/m3 19.8 °C 90.78 % 1,013.15 mbar 0.64 m/s 186.85 Deg 3.08 µg/m3 1.34 µg/m3
2023-06-01 21:00 38.81 µg/m3 0.64 µg/m3 28.28 µg/m3 22.81 µg/m3 12.11 µg/m3 0.39 mg/m3 20.16 °C 85.37 % 1,013.01 mbar 0.42 m/s 229.87 Deg 7.55 µg/m3 1.54 µg/m3
2023-06-01 20:00 37.48 µg/m3 0.76 µg/m3 37.81 µg/m3 24.21 µg/m3 11.62 µg/m3 0.37 mg/m3 21.01 °C 82.33 % 1,012.37 mbar 0.81 m/s 204.65 Deg 7.1 µg/m3 1.52 µg/m3
2023-06-01 19:00 33.03 µg/m3 0.89 µg/m3 49.48 µg/m3 24.68 µg/m3 11.79 µg/m3 0.35 mg/m3 22.01 °C 80.61 % 1,011.97 mbar 1.17 m/s 219.38 Deg 9.65 µg/m3 2.45 µg/m3
2023-06-01 18:00 24.97 µg/m3 0.59 µg/m3 62.52 µg/m3 22.51 µg/m3 12.32 µg/m3 0.33 mg/m3 21.82 °C 85.46 % 1,011.99 mbar 2.6 m/s 70.32 Deg 8.17 µg/m3 0.97 µg/m3
2023-06-01 17:00 28.51 µg/m3 0.64 µg/m3 63.24 µg/m3 30.36 µg/m3 13.18 µg/m3 0.31 mg/m3 22.69 °C 78.56 % 1,012.06 mbar 1.49 m/s 160.91 Deg 6.55 µg/m3 1.26 µg/m3
2023-06-01 16:00 24.98 µg/m3 0.54 µg/m3 71.25 µg/m3 27.29 µg/m3 13.27 µg/m3 0.31 mg/m3 22.54 °C 79.33 % 1,012.07 mbar 2.59 m/s 56.06 Deg 6.69 µg/m3 1.44 µg/m3
2023-06-01 15:00 22.57 µg/m3 0.47 µg/m3 75.2 µg/m3 28.14 µg/m3 13.37 µg/m3 0.3 mg/m3 22.79 °C 76.67 % 1,012.23 mbar 2.61 m/s 53.41 Deg 7.89 µg/m3 0.86 µg/m3
2023-06-01 14:00 19.1 µg/m3 0.54 µg/m3 77.89 µg/m3 26.89 µg/m3 13.13 µg/m3 0.3 mg/m3 22.25 °C 82.4 % 1,012.60 mbar 3.39 m/s 135.68 Deg 7.17 µg/m3 0.87 µg/m3

It is to be noted that the data is provisional and subject to quality assurance procedures. For validated data kindly refer your request to contact.air@era.org.mt